Time;durP1;ratioP1;P1;durP2;ratioP2;P2;SDS_P1;SDS_P2;PMS_P1;PMS_P2;Temp;Humidity;BMP_temperature;BMP_pressure;BME280_temperature;BME280_humidity;BME280_pressure;Samples;Min_cycle;Max_cycle;Signal;HPM_P1;HPM_P2
2021/06/28 00:00:30;;;;;;;1.85;1.75;;;;;;;22.59;54.40;101670.09;5104625;28;20053;-63
2021/06/28 00:02:56;;;;;;;1.73;1.60;;;;;;;22.57;54.62;101672.94;5103215;28;20130;-63
2021/06/28 00:05:21;;;;;;;1.60;1.50;;;;;;;22.57;54.66;101664.97;5105622;28;20400;-63
2021/06/28 00:07:48;;;;;;;1.60;1.50;;;;;;;22.57;54.65;101666.81;5101295;28;20036;-62
2021/06/28 00:10:17;;;;;;;1.70;1.60;;;;;;;22.58;54.39;101674.59;5104368;28;20484;-63
2021/06/28 00:12:43;;;;;;;1.80;1.70;;;;;;;22.57;54.67;101672.94;5104725;28;20429;-63
2021/06/28 00:15:12;;;;;;;2.17;1.80;;;;;;;22.57;54.32;101666.81;5104040;28;20060;-63
2021/06/28 00:17:38;;;;;;;2.03;1.70;;;;;;;22.57;54.47;101674.78;5084763;28;20619;-63
2021/06/28 00:20:06;;;;;;;1.70;1.60;;;;;;;22.57;54.81;101669.47;5103991;28;20119;-63
2021/06/28 00:22:32;;;;;;;1.92;1.80;;;;;;;22.55;54.78;101664.34;5101096;28;20134;-63
2021/06/28 00:24:57;;;;;;;2.47;1.90;;;;;;;22.56;54.73;101670.47;5104832;28;20419;-63
2021/06/28 00:27:23;;;;;;;1.70;1.60;;;;;;;22.54;54.53;101670.66;5084684;28;20413;-63
2021/06/28 00:29:50;;;;;;;1.60;1.50;;;;;;;22.54;54.56;101675.13;5102194;28;20035;-63
2021/06/28 00:32:16;;;;;;;1.60;1.50;;;;;;;22.54;54.88;101669.81;5104771;28;20508;-63
2021/06/28 00:34:42;;;;;;;1.80;1.70;;;;;;;22.53;54.91;101678.78;5104055;28;20137;-63
2021/06/28 00:37:08;;;;;;;2.05;1.90;;;;;;;22.52;55.03;101669.19;5104298;28;20036;-63
2021/06/28 00:39:34;;;;;;;1.77;1.67;;;;;;;22.53;55.09;101670.81;5104436;28;20027;-63
2021/06/28 00:41:59;;;;;;;2.45;2.20;;;;;;;22.53;54.79;101668.16;5104199;28;20043;-63
2021/06/28 00:44:25;;;;;;;1.73;1.58;;;;;;;22.50;54.83;101661.41;5102115;28;20050;-64
2021/06/28 00:46:51;;;;;;;2.05;1.85;;;;;;;22.49;54.71;101653.59;5101158;28;20044;-63
2021/06/28 00:49:16;;;;;;;1.67;1.58;;;;;;;22.50;55.09;101656.09;5083818;28;20044;-63
2021/06/28 00:51:42;;;;;;;1.92;1.73;;;;;;;22.50;54.88;101652.59;5085782;28;20062;-64
2021/06/28 00:54:08;;;;;;;2.20;2.00;;;;;;;22.49;54.96;101654.44;5102550;28;20035;-63
2021/06/28 00:56:34;;;;;;;1.90;1.77;;;;;;;22.50;54.66;101649.94;5098195;28;20083;-63
2021/06/28 00:59:02;;;;;;;1.88;1.73;;;;;;;22.51;55.11;101640.97;5100587;28;20064;-63
2021/06/28 01:01:27;;;;;;;2.00;1.90;;;;;;;22.48;54.81;101644.81;5087164;28;20031;-63
2021/06/28 01:03:53;;;;;;;1.95;1.80;;;;;;;22.48;55.02;101642.16;5100497;28;20054;-63
2021/06/28 01:06:19;;;;;;;2.30;2.00;;;;;;;22.47;55.11;101639.69;5085379;28;20104;-63
2021/06/28 01:08:45;;;;;;;2.10;1.90;;;;;;;22.49;54.92;101640.34;5102867;28;20031;-63
2021/06/28 01:11:10;;;;;;;2.30;2.03;;;;;;;22.41;55.20;101630.59;5104208;28;20771;-63
2021/06/28 01:13:40;;;;;;;2.25;1.95;;;;;;;22.47;54.99;101643.19;5102450;28;20071;-63
2021/06/28 01:16:06;;;;;;;2.10;1.90;;;;;;;22.47;55.01;101642.34;5104600;28;20046;-63
2021/06/28 01:18:33;;;;;;;2.22;2.03;;;;;;;22.44;55.21;101635.56;5102137;28;20059;-63
2021/06/28 01:21:00;;;;;;;3.10;2.20;;;;;;;22.44;55.25;101635.56;5105650;28;20031;-63
2021/06/28 01:23:30;;;;;;;2.58;2.20;;;;;;;22.44;55.30;101630.25;5102096;28;20044;-63
2021/06/28 01:25:58;;;;;;;2.88;2.30;;;;;;;22.44;54.99;101621.44;5103069;28;20035;-63
2021/06/28 01:28:24;;;;;;;2.10;1.90;;;;;;;22.44;55.04;101629.41;5106622;28;20184;-63
2021/06/28 01:30:51;;;;;;;2.50;2.30;;;;;;;22.39;55.34;101615.84;5105361;27;20092;-63
2021/06/28 01:33:17;;;;;;;1.90;1.70;;;;;;;22.40;55.12;101618.34;5108928;27;20075;-63
2021/06/28 01:35:42;;;;;;;2.10;1.90;;;;;;;22.43;55.03;101622.44;5110116;27;20055;-63
2021/06/28 01:38:09;;;;;;;3.35;2.47;;;;;;;22.41;55.33;101621.81;5110764;27;20099;-63
2021/06/28 01:40:35;;;;;;;2.22;1.92;;;;;;;22.41;55.13;101617.31;5106059;28;20487;-63
2021/06/28 01:43:01;;;;;;;2.47;2.10;;;;;;;22.40;55.13;101617.50;5109521;27;20035;-63
2021/06/28 01:45:27;;;;;;;2.33;2.13;;;;;;;22.41;55.18;101625.28;5106586;27;20070;-63
2021/06/28 01:47:54;;;;;;;2.72;2.20;;;;;;;22.40;55.27;101623.63;5104523;27;20035;-63
2021/06/28 01:50:23;;;;;;;2.30;2.10;;;;;;;22.40;55.33;101620.97;5107892;27;20426;-63
2021/06/28 01:52:49;;;;;;;2.65;2.28;;;;;;;22.37;55.31;101613.38;5106975;27;20063;-63
2021/06/28 01:55:16;;;;;;;2.17;1.98;;;;;;;22.39;55.25;101615.84;5106521;27;20027;-63
2021/06/28 01:58:03;;;;;;;4.22;2.60;;;;;;;22.39;55.14;101623.81;5106380;28;20096;-63
2021/06/28 02:00:38;;;;;;;3.45;2.40;;;;;;;22.37;55.36;101615.22;5107253;27;20040;-63
2021/06/28 02:03:05;;;;;;;2.38;2.15;;;;;;;22.37;55.15;101620.53;5101530;28;20096;-63
2021/06/28 02:05:33;;;;;;;2.38;2.05;;;;;;;22.37;55.43;101620.53;5109603;27;20043;-63
2021/06/28 02:08:00;;;;;;;3.85;2.08;;;;;;;22.36;55.17;101619.69;5108733;27;20480;-63
2021/06/28 02:10:26;;;;;;;2.58;2.38;;;;;;;22.37;55.48;101623.16;5107852;27;20035;-63
2021/06/28 02:12:52;;;;;;;3.10;2.08;;;;;;;22.36;55.55;101609.06;5107140;27;20042;-63
2021/06/28 02:15:23;;;;;;;3.60;2.58;;;;;;;22.37;55.38;101604.59;5107840;27;20107;-64
2021/06/28 02:17:49;;;;;;;2.75;2.20;;;;;;;22.35;55.61;101601.28;5104536;28;20063;-63
2021/06/28 02:20:14;;;;;;;2.40;2.05;;;;;;;22.33;55.63;101598.00;5106511;27;20131;-64
2021/06/28 02:22:40;;;;;;;2.05;1.92;;;;;;;22.33;55.26;101598.81;5105044;27;20495;-63
2021/06/28 02:25:08;;;;;;;2.75;2.50;;;;;;;22.35;55.57;101601.28;5105649;28;20074;-63
2021/06/28 02:27:35;;;;;;;2.35;2.15;;;;;;;22.34;55.41;101608.44;5102955;27;20088;-63
2021/06/28 02:30:04;;;;;;;2.20;2.00;;;;;;;22.34;55.36;101608.44;5090975;28;20036;-63
2021/06/28 02:32:30;;;;;;;2.20;2.00;;;;;;;22.34;55.59;101608.44;5104927;27;20043;-63
2021/06/28 02:34:56;;;;;;;2.28;2.08;;;;;;;22.31;55.32;101606.97;5106995;27;20035;-63
2021/06/28 02:37:22;;;;;;;2.55;2.35;;;;;;;22.33;55.62;101598.81;5104429;28;20024;-63
2021/06/28 02:39:47;;;;;;;2.83;2.00;;;;;;;22.31;55.83;101598.19;5090991;28;20164;-63
2021/06/28 02:42:13;;;;;;;1.85;1.75;;;;;;;22.31;55.59;101601.66;5104589;27;20050;-63
2021/06/28 02:44:38;;;;;;;2.30;2.10;;;;;;;22.30;55.71;101597.34;5089847;27;20044;-63
2021/06/28 02:47:04;;;;;;;2.25;2.05;;;;;;;22.29;55.75;101593.06;5106381;27;20032;-63
2021/06/28 02:49:29;;;;;;;2.83;2.33;;;;;;;22.30;55.56;101589.41;5106470;27;20371;-63
2021/06/28 02:51:55;;;;;;;2.35;2.15;;;;;;;22.31;55.41;101587.56;5106323;28;20124;-64
2021/06/28 02:54:20;;;;;;;2.53;2.08;;;;;;;22.30;55.53;101596.53;5086305;28;20096;-63
2021/06/28 02:56:46;;;;;;;2.72;2.13;;;;;;;22.31;55.56;101592.88;5105735;27;20760;-63
2021/06/28 02:59:12;;;;;;;2.72;2.05;;;;;;;22.22;55.48;101578.00;5105565;28;20035;-63
2021/06/28 03:01:38;;;;;;;3.00;2.00;;;;;;;22.29;55.63;101584.28;5102930;27;20143;-63
2021/06/28 03:04:04;;;;;;;2.67;2.20;;;;;;;22.28;55.90;101586.09;5108425;27;20643;-63
2021/06/28 03:06:29;;;;;;;3.58;2.30;;;;;;;22.29;55.56;101579.78;5109587;27;20123;-63
2021/06/28 03:08:55;;;;;;;2.80;2.28;;;;;;;22.27;55.57;101578.31;5107028;27;20024;-63
2021/06/28 03:11:22;;;;;;;1.90;1.80;;;;;;;22.28;55.50;101580.78;5105732;27;20027;-63
2021/06/28 03:13:49;;;;;;;2.58;2.28;;;;;;;22.26;55.70;101580.16;5090646;28;20114;-63
2021/06/28 03:16:15;;;;;;;2.53;2.22;;;;;;;22.27;55.55;101583.63;5106333;27;20036;-63
2021/06/28 03:18:40;;;;;;;2.90;2.60;;;;;;;22.27;55.58;101589.75;5107367;27;20035;-63
2021/06/28 03:21:11;;;;;;;2.97;2.58;;;;;;;22.28;55.49;101585.28;5106009;28;20055;-63
2021/06/28 03:23:41;;;;;;;3.67;2.90;;;;;;;22.26;55.94;101585.47;5103277;27;20081;-63
2021/06/28 03:26:06;;;;;;;;;;;;;;;22.26;55.80;101579.28;5108969;27;20032;-63
2021/06/28 03:28:33;;;;;;;2.88;2.55;;;;;;;22.25;55.84;101581.13;5087682;28;20794;-63
2021/06/28 03:30:59;;;;;;;3.38;2.58;;;;;;;22.22;55.72;101578.00;5108179;27;20038;-63
2021/06/28 03:33:24;;;;;;;2.70;2.45;;;;;;;22.24;55.91;101583.94;5104660;28;20485;-63
2021/06/28 03:35:50;;;;;;;2.25;2.05;;;;;;;22.24;55.68;101576.81;5108663;27;20039;-63
2021/06/28 03:38:17;;;;;;;5.03;2.85;;;;;;;22.26;55.89;101584.59;5096027;28;20047;-63
2021/06/28 03:40:43;;;;;;;4.05;2.47;;;;;;;22.24;55.86;101576.81;5106299;27;20035;-63
2021/06/28 03:43:10;;;;;;;3.25;2.28;;;;;;;22.25;55.79;101577.66;5104783;27;20024;-63
2021/06/28 03:45:37;;;;;;;2.20;2.00;;;;;;;22.24;55.67;101579.47;5105136;28;20303;-63
2021/06/28 03:48:04;;;;;;;2.00;1.88;;;;;;;22.26;55.98;101577.50;5101989;28;20042;-63
2021/06/28 03:50:30;;;;;;;2.25;2.03;;;;;;;22.22;55.73;101575.34;5103626;28;20127;-63
2021/06/28 03:52:56;;;;;;;2.08;1.98;;;;;;;22.25;55.55;101586.44;5088727;27;20138;-63
2021/06/28 03:55:21;;;;;;;4.50;2.10;;;;;;;22.25;56.12;101586.44;5102166;27;20043;-63
2021/06/28 03:57:47;;;;;;;2.20;2.00;;;;;;;22.25;55.84;101580.28;5105157;28;20095;-63
2021/06/28 04:00:19;;;;;;;2.03;1.92;;;;;;;22.26;55.54;101579.28;5105690;27;22025;-63
2021/06/28 04:02:45;;;;;;;1.95;1.73;;;;;;;22.22;55.69;101570.88;5101067;28;20039;-63
2021/06/28 04:05:15;;;;;;;2.15;1.98;;;;;;;22.22;55.88;101567.41;5106343;27;20036;-63
2021/06/28 04:07:42;;;;;;;2.20;2.00;;;;;;;22.25;56.06;101578.47;5103996;27;20039;-63
2021/06/28 04:10:08;;;;;;;2.10;1.90;;;;;;;22.24;55.94;101578.66;5106661;27;20034;-63
2021/06/28 04:12:35;;;;;;;2.80;1.73;;;;;;;22.27;56.06;101587.09;5104996;28;20031;-63
2021/06/28 04:15:00;;;;;;;1.98;1.88;;;;;;;22.27;55.80;101603.03;5105542;27;20027;-63
2021/06/28 04:17:26;;;;;;;1.90;1.80;;;;;;;22.25;55.75;101588.25;5104282;27;20553;-63
2021/06/28 04:19:52;;;;;;;1.75;1.63;;;;;;;22.26;55.67;101601.38;5107556;27;20370;-63
2021/06/28 04:22:18;;;;;;;2.28;1.90;;;;;;;22.27;55.91;101594.25;5107607;27;20039;-64
2021/06/28 04:24:43;;;;;;;1.90;1.80;;;;;;;22.26;55.77;101597.88;5104628;28;20039;-63
2021/06/28 04:27:09;;;;;;;1.95;1.75;;;;;;;22.25;55.93;101590.91;5088329;28;20043;-63
2021/06/28 04:29:35;;;;;;;1.60;1.50;;;;;;;22.24;56.01;101584.78;5107373;28;20035;-63
2021/06/28 04:32:03;;;;;;;1.75;1.65;;;;;;;22.25;55.98;101588.25;5105201;28;20035;-63
2021/06/28 04:34:28;;;;;;;1.52;1.42;;;;;;;22.21;56.01;101585.13;5106058;28;20036;-63
2021/06/28 04:36:54;;;;;;;1.48;1.38;;;;;;;22.24;55.77;101590.09;5103911;28;20070;-63
2021/06/28 04:39:19;;;;;;;1.92;1.83;;;;;;;22.24;55.80;101590.09;5103901;28;20050;-63
2021/06/28 04:41:45;;;;;;;1.90;1.65;;;;;;;22.19;56.07;101581.03;5107971;28;20040;-63
2021/06/28 04:44:11;;;;;;;1.90;1.70;;;;;;;22.22;55.81;101583.31;5103673;28;20105;-63
2021/06/28 04:46:36;;;;;;;2.15;1.58;;;;;;;22.22;55.98;101605.34;5103546;28;20051;-65
2021/06/28 04:49:02;;;;;;;1.70;1.60;;;;;;;22.17;56.05;101597.13;5102533;28;20031;-63
2021/06/28 04:51:28;;;;;;;1.80;1.70;;;;;;;22.22;55.83;101605.34;5103648;28;20039;-63
2021/06/28 04:53:53;;;;;;;1.48;1.45;;;;;;;22.22;55.98;101596.56;5084111;28;20055;-63
2021/06/28 04:56:19;;;;;;;1.50;1.40;;;;;;;22.21;56.01;101585.13;5105466;28;20038;-63
2021/06/28 04:58:44;;;;;;;1.77;1.67;;;;;;;22.21;56.04;101579.84;5104796;28;20032;-62
2021/06/28 05:01:10;;;;;;;1.80;1.70;;;;;;;22.21;56.20;101573.69;5108559;27;20039;-63
2021/06/28 05:03:35;;;;;;;1.67;1.58;;;;;;;22.20;56.28;101578.19;5106425;27;20039;-63
2021/06/28 05:06:01;;;;;;;1.20;1.20;;;;;;;22.20;56.19;101580.84;5109299;28;20039;-63
2021/06/28 05:08:27;;;;;;;1.40;1.30;;;;;;;22.22;55.92;101578.00;5108031;27;20027;-63
2021/06/28 05:10:52;;;;;;;1.63;1.52;;;;;;;22.22;56.28;101581.47;5092311;28;20039;-63
2021/06/28 05:13:18;;;;;;;1.70;1.60;;;;;;;22.22;56.25;101578.00;5109793;27;20042;-63
2021/06/28 05:15:43;;;;;;;1.60;1.50;;;;;;;22.24;56.32;101583.94;5108239;27;20474;-63
2021/06/28 05:18:09;;;;;;;1.83;1.42;;;;;;;22.24;55.99;101570.69;5107683;27;20047;-64
2021/06/28 05:20:34;;;;;;;1.77;1.67;;;;;;;22.24;56.08;101571.50;5111940;27;20040;-63
2021/06/28 05:23:00;;;;;;;1.55;1.45;;;;;;;22.26;56.09;101566.03;5108053;27;20027;-63
2021/06/28 05:25:25;;;;;;;1.55;1.45;;;;;;;22.25;56.28;101562.56;5108220;28;20370;-63
2021/06/28 05:27:52;;;;;;;1.50;1.45;;;;;;;22.26;56.09;101561.56;5106677;27;20043;-63
2021/06/28 05:30:18;;;;;;;1.35;1.25;;;;;;;22.26;56.05;101569.53;5107779;27;20035;-63
2021/06/28 05:32:44;;;;;;;1.65;1.55;;;;;;;22.26;56.06;101563.38;5109149;27;20050;-63
2021/06/28 05:35:10;;;;;;;1.83;1.45;;;;;;;22.26;56.15;101577.50;5108035;27;20524;-63
2021/06/28 05:37:37;;;;;;;2.22;2.03;;;;;;;22.27;56.15;101580.97;5105891;27;20038;-63
2021/06/28 05:40:04;;;;;;;1.45;1.35;;;;;;;22.27;56.28;101570.34;5108922;27;20042;-63
2021/06/28 05:42:29;;;;;;;1.92;1.48;;;;;;;22.26;56.09;101571.34;5088306;28;20043;-63
2021/06/28 05:44:55;;;;;;;1.48;1.40;;;;;;;22.25;56.10;101567.84;5088410;28;20130;-63
2021/06/28 05:47:22;;;;;;;1.60;1.50;;;;;;;22.27;55.97;101568.53;5092394;28;20044;-63
2021/06/28 05:49:50;;;;;;;1.50;1.40;;;;;;;22.28;56.03;101569.34;5108806;27;20096;-63
2021/06/28 05:52:19;;;;;;;1.52;1.40;;;;;;;22.27;56.16;101570.34;5107722;27;20139;-63
2021/06/28 05:54:45;;;;;;;1.73;1.52;;;;;;;22.27;56.15;101565.06;5109417;27;20031;-63
2021/06/28 05:57:11;;;;;;;1.60;1.50;;;;;;;22.29;55.94;101568.34;5106482;27;20032;-63
2021/06/28 05:59:36;;;;;;;2.25;1.60;;;;;;;22.21;56.06;101548.00;5090707;27;20091;-64
2021/06/28 06:02:02;;;;;;;1.67;1.58;;;;;;;22.30;55.84;101560.22;5107756;27;20036;-63
2021/06/28 06:04:28;;;;;;;1.40;1.30;;;;;;;22.32;56.03;101562.69;5108413;27;20046;-63
2021/06/28 06:06:53;;;;;;;2.30;2.10;;;;;;;22.21;56.80;101563.91;5088294;28;20032;-64
2021/06/28 06:09:19;;;;;;;3.75;2.05;;;;;;;22.17;57.35;101575.88;5107608;28;20043;-64
2021/06/28 06:11:44;;;;;;;2.92;2.17;;;;;;;21.98;58.07;101566.53;5108198;27;20039;-65
2021/06/28 06:14:10;;;;;;;3.47;2.40;;;;;;;21.93;57.96;101560.94;5107207;27;20055;-65
2021/06/28 06:16:35;;;;;;;3.65;2.55;;;;;;;21.80;57.91;101557.22;5094414;27;20035;-64
2021/06/28 06:19:01;;;;;;;3.10;2.60;;;;;;;21.62;59.48;101568.09;5105534;28;20031;-66
2021/06/28 06:21:26;;;;;;;3.60;3.00;;;;;;;21.26;60.41;101568.56;5103133;27;20820;-65
2021/06/28 06:23:52;;;;;;;4.00;3.10;;;;;;;21.05;61.70;101565.63;5097479;27;20040;-66
2021/06/28 06:26:18;;;;;;;3.65;3.33;;;;;;;20.86;61.81;101568.66;5092857;28;20036;-66
2021/06/28 06:28:45;;;;;;;3.88;3.10;;;;;;;20.74;62.49;101574.28;5093369;27;20047;-66
2021/06/28 06:31:11;;;;;;;5.28;3.50;;;;;;;20.66;63.17;101576.97;5105784;27;20043;-65
2021/06/28 06:33:38;;;;;;;4.82;3.15;;;;;;;20.69;62.77;101563.41;5078624;28;20687;-65
2021/06/28 06:36:04;;;;;;;3.70;3.25;;;;;;;20.44;63.75;101573.16;5120411;27;20066;-66
2021/06/28 06:38:29;;;;;;;3.65;2.92;;;;;;;20.63;63.23;101576.44;5120888;27;20228;-65
2021/06/28 06:40:55;;;;;;;4.00;3.10;;;;;;;21.00;62.08;101566.13;5107013;27;20571;-65
2021/06/28 06:43:21;;;;;;;3.03;2.50;;;;;;;21.38;60.43;101564.56;5106417;27;20032;-64
2021/06/28 06:45:46;;;;;;;3.53;2.30;;;;;;;21.62;59.55;101566.25;5085528;28;20036;-64
2021/06/28 06:48:12;;;;;;;2.47;2.20;;;;;;;21.82;58.49;101555.22;5072162;28;20050;-64
2021/06/28 06:50:39;;;;;;;1.90;1.80;;;;;;;21.94;57.97;101552.00;5107433;27;20039;-65
2021/06/28 06:53:05;;;;;;;2.22;2.00;;;;;;;22.07;57.71;101553.25;5107913;27;20047;-64
2021/06/28 06:55:30;;;;;;;3.17;2.22;;;;;;;22.14;57.20;101557.69;5104641;28;20114;-64
2021/06/28 06:57:56;;;;;;;2.50;2.05;;;;;;;22.20;57.14;101559.63;5111518;27;20046;-64
2021/06/28 07:00:22;;;;;;;4.07;2.30;;;;;;;22.29;57.01;101563.88;5106694;27;20031;-64
2021/06/28 07:02:49;;;;;;;2.33;1.98;;;;;;;22.35;56.61;101558.84;5105867;27;20476;-64
2021/06/28 07:05:16;;;;;;;2.25;2.05;;;;;;;22.41;56.25;101553.63;5106654;27;20482;-64
2021/06/28 07:07:42;;;;;;;1.98;1.70;;;;;;;22.45;56.28;101562.09;5104461;27;20042;-64
2021/06/28 07:10:09;;;;;;;1.95;1.85;;;;;;;22.44;55.99;101540.03;5106267;27;20035;-64
2021/06/28 07:12:37;;;;;;;2.85;1.70;;;;;;;22.54;56.42;101551.19;5088455;28;20075;-64
2021/06/28 07:15:04;;;;;;;4.82;3.08;;;;;;;22.43;57.25;101553.44;5059459;28;20799;-65
2021/06/28 07:17:29;;;;;;;3.80;3.10;;;;;;;22.12;58.79;101542.94;5104930;28;20039;-65
2021/06/28 07:19:55;;;;;;;2.70;2.50;;;;;;;22.23;58.43;101551.28;5100620;27;20047;-64
2021/06/28 07:22:20;;;;;;;2.85;2.60;;;;;;;22.41;57.83;101545.69;5094555;27;20064;-64
2021/06/28 07:24:46;;;;;;;3.03;2.72;;;;;;;22.40;58.48;101549.34;5098362;27;20054;-64
2021/06/28 07:27:12;;;;;;;3.05;2.75;;;;;;;22.41;58.16;101544.84;5099375;27;20032;-65
2021/06/28 07:29:38;;;;;;;3.50;2.78;;;;;;;22.52;57.93;101553.22;5089167;27;20469;-64
2021/06/28 07:32:04;;;;;;;3.17;2.88;;;;;;;22.45;57.97;101547.00;5088231;27;20031;-64
2021/06/28 07:34:30;;;;;;;6.57;2.90;;;;;;;22.53;58.57;101554.88;5105556;28;20043;-65
2021/06/28 07:36:55;;;;;;;4.05;3.28;;;;;;;22.47;58.81;101560.91;5077287;28;20043;-64
2021/06/28 07:39:21;;;;;;;3.60;3.10;;;;;;;22.65;58.25;101560.56;5094370;28;20034;-65
2021/06/28 07:41:47;;;;;;;4.50;2.80;;;;;;;22.71;58.00;101561.66;5056966;28;20024;-64
2021/06/28 07:44:12;;;;;;;3.78;2.55;;;;;;;22.80;57.15;101563.22;5102302;28;20069;-65
2021/06/28 07:46:38;;;;;;;3.65;2.55;;;;;;;23.02;56.67;101566.88;5077094;27;20035;-65
2021/06/28 07:49:05;;;;;;;4.72;3.33;;;;;;;22.76;58.34;101570.72;5100092;28;20482;-64
2021/06/28 07:51:33;;;;;;;3.53;3.10;;;;;;;22.55;59.57;101558.16;5074700;28;20040;-65
2021/06/28 07:53:59;;;;;;;18.93;3.57;;;;;;;24.31;55.00;101550.16;5101692;28;20058;-75
2021/06/28 07:56:24;;;;;;;4.30;3.63;;;;;;;23.69;55.71;101538.28;5043663;28;20792;-65
2021/06/28 07:58:50;;;;;;;5.80;2.90;;;;;;;23.13;57.69;101551.25;5102383;28;20617;-64
2021/06/28 08:01:17;;;;;;;4.63;3.85;;;;;;;22.73;59.44;101546.38;5076903;28;20043;-65
2021/06/28 08:03:47;;;;;;;4.32;3.90;;;;;;;22.42;60.62;101542.00;5069421;28;20486;-65
2021/06/28 08:06:15;;;;;;;4.95;4.07;;;;;;;22.55;59.95;101539.56;5100286;28;20047;-65
2021/06/28 08:08:41;;;;;;;4.47;3.65;;;;;;;22.32;60.94;101541.47;5077375;28;20059;-65
2021/06/28 08:11:09;;;;;;;4.75;3.50;;;;;;;22.39;60.88;101539.72;5099221;28;20035;-64
2021/06/28 08:13:36;;;;;;;3.95;3.65;;;;;;;22.54;59.62;101531.81;5077693;28;20078;-64
2021/06/28 08:16:03;;;;;;;4.38;3.75;;;;;;;22.74;59.61;101532.91;5102192;28;20054;-65
2021/06/28 08:18:29;;;;;;;4.63;3.63;;;;;;;22.52;60.68;101541.78;5066671;28;20405;-65
2021/06/28 08:20:54;;;;;;;5.97;4.18;;;;;;;22.79;60.07;101532.38;5103192;28;20054;-65
2021/06/28 08:23:20;;;;;;;5.05;4.00;;;;;;;22.86;59.55;101531.50;5086731;28;20596;-65
2021/06/28 08:25:45;;;;;;;4.90;4.10;;;;;;;23.19;58.68;101531.13;5097722;28;20451;-64
2021/06/28 08:28:12;;;;;;;4.57;4.15;;;;;;;22.71;59.93;101520.00;5080027;28;20039;-64
2021/06/28 08:30:38;;;;;;;5.35;4.00;;;;;;;22.52;61.20;101512.59;5099244;28;20112;-64
2021/06/28 08:33:04;;;;;;;5.72;4.40;;;;;;;22.78;59.83;101512.97;5102534;28;20027;-65
2021/06/28 08:35:29;;;;;;;4.03;3.72;;;;;;;22.86;60.00;101512.91;5082819;28;20078;-64
2021/06/28 08:37:55;;;;;;;11.30;3.70;;;;;;;23.26;58.97;101508.09;5103224;28;20051;-64
2021/06/28 08:40:20;;;;;;;4.30;3.40;;;;;;;23.18;58.63;101501.09;5062711;28;20043;-64
2021/06/28 08:42:46;;;;;;;4.00;3.55;;;;;;;23.42;58.86;101510.56;5088830;28;20146;-65
2021/06/28 08:45:13;;;;;;;3.50;3.20;;;;;;;23.48;58.48;101506.31;5078168;28;20482;-65
2021/06/28 08:47:41;;;;;;;3.50;3.17;;;;;;;23.48;59.12;101508.97;5106021;28;20662;-64
2021/06/28 08:50:09;;;;;;;5.47;3.25;;;;;;;23.57;58.56;101507.06;5072568;27;20462;-65
2021/06/28 08:52:37;;;;;;;3.92;3.50;;;;;;;23.75;58.13;101504.81;5101400;28;20442;-64
2021/06/28 08:55:05;;;;;;;3.67;3.38;;;;;;;23.59;58.73;101505.88;5079676;28;20051;-64
2021/06/28 08:57:31;;;;;;;4.05;3.65;;;;;;;23.62;58.50;101505.47;5095418;28;20362;-66
2021/06/28 08:59:57;;;;;;;4.15;3.40;;;;;;;23.66;58.33;101509.41;5082188;28;20065;-65
2021/06/28 09:02:22;;;;;;;4.28;3.70;;;;;;;23.50;59.02;101514.91;5104926;28;20035;-65
2021/06/28 09:05:06;;;;;;;5.88;4.10;;;;;;;23.24;59.98;101511.97;5094886;28;20074;-66
2021/06/28 09:07:32;;;;;;;5.25;3.70;;;;;;;23.55;58.86;101517.03;5092389;28;20039;-65
2021/06/28 09:09:57;;;;;;;4.00;3.60;;;;;;;23.75;58.18;101512.78;5108031;28;20043;-65
2021/06/28 09:12:23;;;;;;;4.93;3.70;;;;;;;23.80;58.29;101518.34;5076773;28;20050;-64
2021/06/28 09:14:55;;;;;;;3.80;3.40;;;;;;;23.88;58.24;101523.56;5105416;28;20059;-65
2021/06/28 09:17:33;;;;;;;6.28;4.63;;;;;;;23.44;60.13;101527.13;5080662;28;20028;-65
2021/06/28 09:20:22;;;;;;;6.22;3.60;;;;;;;23.69;59.85;101524.16;5118176;27;20043;-66
2021/06/28 09:22:49;;;;;;;3.75;3.25;;;;;;;23.84;58.85;101529.44;5072498;27;20091;-65
2021/06/28 09:25:36;;;;;;;4.18;3.60;;;;;;;23.98;58.35;101528.56;5106069;28;20043;-65
2021/06/28 09:28:03;;;;;;;5.90;4.18;;;;;;;23.94;58.04;101514.81;5076497;28;20097;-65
2021/06/28 09:30:29;;;;;;;5.32;4.10;;;;;;;23.63;59.52;101525.75;5106682;28;20501;-64
2021/06/28 09:33:00;;;;;;;4.60;3.55;;;;;;;23.82;58.92;101529.63;5055166;28;20552;-63
2021/06/28 09:35:30;;;;;;;3.75;3.40;;;;;;;24.00;58.23;101524.69;5103086;28;20031;-64
2021/06/28 09:37:57;;;;;;;4.60;3.30;;;;;;;24.03;57.80;101526.13;5077374;28;20955;-65
2021/06/28 09:40:25;;;;;;;5.05;3.63;;;;;;;24.21;57.96;101534.47;5108907;28;20476;-62
2021/06/28 09:42:51;;;;;;;4.28;3.13;;;;;;;24.34;57.16;101531.97;5082631;28;20043;-64
2021/06/28 09:45:20;;;;;;;3.20;2.90;;;;;;;24.45;56.64;101527.97;5095511;28;20040;-63
2021/06/28 09:47:46;;;;;;;4.13;3.40;;;;;;;24.49;56.56;101531.06;5084427;28;20035;-64
2021/06/28 09:50:15;;;;;;;2.85;2.65;;;;;;;24.51;56.28;101529.03;5089146;28;20401;-64
2021/06/28 09:52:44;;;;;;;4.88;3.20;;;;;;;24.45;56.19;101525.31;5075421;28;20036;-63
2021/06/28 09:55:30;;;;;;;3.88;3.28;;;;;;;24.40;56.48;101525.03;5101663;28;20178;-64
2021/06/28 09:58:21;;;;;;;4.28;3.40;;;;;;;24.48;56.29;101522.25;5075760;28;20059;-63
2021/06/28 10:00:49;;;;;;;3.70;3.20;;;;;;;24.49;56.19;101518.56;5103153;28;20024;-64
2021/06/28 10:03:40;;;;;;;3.20;2.90;;;;;;;24.49;56.13;101513.25;5082338;28;20114;-64
2021/06/28 10:08:38;;;;;;;3.67;3.22;;;;;;;24.60;55.87;101520.72;5061455;28;20032;-66
2021/06/28 10:11:15;;;;;;;3.40;3.10;;;;;;;24.67;55.59;101520.75;5105343;28;20027;-63
2021/06/28 10:13:41;;;;;;;6.18;3.08;;;;;;;24.49;56.10;101523.91;5080326;27;20087;-63
2021/06/28 10:16:08;;;;;;;3.58;3.28;;;;;;;24.52;56.08;101520.84;5106415;28;20159;-63
2021/06/28 10:18:34;;;;;;;3.90;3.50;;;;;;;24.53;55.87;101524.31;5081004;28;20042;-63
2021/06/28 10:21:00;;;;;;;4.35;3.60;;;;;;;24.64;55.85;101526.47;5105252;28;20039;-66
2021/06/28 10:23:26;;;;;;;3.47;3.17;;;;;;;24.68;55.76;101517.06;5068296;28;20043;-65
2021/06/28 10:25:51;;;;;;;4.32;3.50;;;;;;;24.75;55.83;101517.91;5107255;28;20035;-68
2021/06/28 10:28:18;;;;;;;3.78;3.47;;;;;;;24.78;55.85;101512.22;5077458;28;21592;-65
2021/06/28 10:30:44;;;;;;;4.10;3.33;;;;;;;24.73;55.65;101508.47;5103688;28;20036;-67
2021/06/28 10:33:14;;;;;;;4.25;3.80;;;;;;;24.81;56.03;101505.66;5080053;28;20573;-67
2021/06/28 10:35:41;;;;;;;3.95;3.28;;;;;;;24.73;55.80;101498.66;5090006;28;20027;-64
2021/06/28 10:38:12;;;;;;;4.20;3.80;;;;;;;24.77;55.48;101505.22;5089563;28;20046;-64
2021/06/28 10:40:44;;;;;;;4.00;3.58;;;;;;;24.74;55.34;101507.47;5098065;27;20438;-65
2021/06/28 10:43:30;;;;;;;3.55;3.25;;;;;;;24.63;55.65;101504.34;5099858;28;20520;-64
2021/06/28 10:45:57;;;;;;;3.97;3.58;;;;;;;24.68;55.29;101496.56;5104107;28;20497;-66
2021/06/28 10:48:24;;;;;;;6.03;4.03;;;;;;;24.64;55.67;101503.31;5076437;28;20123;-66
2021/06/28 10:50:53;;;;;;;4.22;3.55;;;;;;;24.70;55.48;101501.69;5106050;28;20035;-66
2021/06/28 10:53:39;;;;;;;4.35;3.85;;;;;;;24.66;55.68;101508.44;5071094;28;20489;-66
2021/06/28 10:56:27;;;;;;;3.63;3.33;;;;;;;24.61;55.68;101503.72;5104325;28;20105;-66
2021/06/28 10:59:16;;;;;;;4.00;3.60;;;;;;;24.27;55.04;101506.31;5078706;28;20805;-63
2021/06/28 11:01:56;;;;;;;5.18;3.90;;;;;;;23.70;54.42;101505.38;5101357;28;20024;-63
2021/06/28 11:04:28;;;;;;;4.00;3.60;;;;;;;24.16;54.92;101504.16;5074968;28;20974;-62
2021/06/28 11:06:59;;;;;;;3.90;3.50;;;;;;;24.48;54.64;101505.47;5103772;28;20590;-63
2021/06/28 11:09:52;;;;;;;3.63;3.33;;;;;;;24.49;54.96;101491.94;5070643;28;20039;-64
2021/06/28 11:12:20;;;;;;;4.22;3.75;;;;;;;24.24;56.28;101488.06;5098345;28;20128;-64
2021/06/28 11:15:05;;;;;;;3.60;3.30;;;;;;;24.22;56.59;101479.41;5079545;28;20031;-63
2021/06/28 11:17:48;;;;;;;3.60;3.10;;;;;;;23.95;57.49;101478.41;5105468;28;20047;-63
2021/06/28 11:20:28;;;;;;;4.22;3.20;;;;;;;23.87;58.27;101471.34;5062031;28;20506;-65
2021/06/28 11:23:06;;;;;;;3.95;3.55;;;;;;;23.99;57.95;101463.69;5094390;28;20434;-63
2021/06/28 11:25:52;;;;;;;3.92;3.33;;;;;;;24.18;57.60;101464.88;5060683;28;20582;-63
2021/06/28 11:28:26;;;;;;;5.65;3.67;;;;;;;24.21;57.50;101467.94;5100087;28;20043;-64